Aérodrome :
LOGIN :

S'inscrire | Disclaimer

   EN    FR    IT 

 










Légende :    VFR   VFR Marginal   IFR   IFR Intensif   IFR Très Intensif
Visi : 
Plafond : 
>= 8 km
>= 3000ft
5 à 8 km
1000 à 3000 ft
1500m à 5 km
500 à 1000 ft
800 à 1500m
200 à 500 ft
< 800m
< 200 ft
Symboles :   Orages  Brouillard  Fortes neiges  Fortes précipitations  Vent > 20 kt
SIGMETs :   Divers  Orages  Givrage  Turbulence  Onde Orograph.  Cendres Volcan.






- Altitude de l'aérodrome : 80 ft
- Code IATA : LPL


EGGP - Liverpool John Lennon

DERNIER METAR :
  • 191520Z 06004KT 0150 R27/0275 FG BKN001 03/03 Q1047

METARs EXPIRÉS :
  • 191450Z 06005KT 0150 R27/0200 FG BKN001 03/03 Q1047
  • 191420Z 06004KT 360V110 0150 R27/0225 FG OVC001 03/03 Q1046
  • 191350Z VRB03KT 0150 R27/0200 FG VV/// 04/04 Q1046
  • 191250Z 10004KT 070V130 0200 R27/0250 FG VV/// 03/03 Q1046

TAF AMD TAF EGGP
Valide du 19 à 14h jusqu'au 20 à 12h UTC


191405Z 1914/2012 14005KT 0200 FG VV///
PROB30
TEMPO 1914/1918 3000 BR SCT005
BECMG 1918/1921 9999 NSW FEW005
PROB40 1921/2012 4000 BR
ATIS : +44 151 907 2000 (option 5 or ext 5150)
Météo : +44 871 750 5150



MET'MAP, la Météo Aéronautique d'un coup d'oeil ! - Copyright ORBIFLY Décembre 2007 - Disclaimer

ORBIFLY MET'MAP TEAM :

Programmation & Développement : Alexandra Zaïnal
Sur une idée originale de : Baudouin d'Aumeries
Assistance à la programmation : Marc-Olivier Méhu
Soutien technique & logistique : Manuel Goepfert

Contact : metmap@orbifly.com




SOURCES & CREDITS :

   NOAA